sensor_id;sensor_type;location;lat;lon;timestamp;P1;durP1;ratioP1;P2;durP2;ratioP2
68089;SDS011;54880;50.986;6.990;2022-10-31T00:00:46;15.03;;;6.73;;
68089;SDS011;54880;50.986;6.990;2022-10-31T00:03:12;18.03;;;7.00;;
68089;SDS011;54880;50.986;6.990;2022-10-31T00:05:40;15.60;;;7.57;;
68089;SDS011;54880;50.986;6.990;2022-10-31T00:08:05;16.63;;;7.30;;
68089;SDS011;54880;50.986;6.990;2022-10-31T00:10:31;18.83;;;6.97;;
68089;SDS011;54880;50.986;6.990;2022-10-31T00:12:56;13.13;;;6.80;;
68089;SDS011;54880;50.986;6.990;2022-10-31T00:15:21;18.13;;;7.20;;
68089;SDS011;54880;50.986;6.990;2022-10-31T00:17:46;16.90;;;7.10;;
68089;SDS011;54880;50.986;6.990;2022-10-31T00:20:11;17.77;;;7.20;;
68089;SDS011;54880;50.986;6.990;2022-10-31T00:22:37;12.67;;;6.73;;
68089;SDS011;54880;50.986;6.990;2022-10-31T00:25:02;17.63;;;7.00;;
68089;SDS011;54880;50.986;6.990;2022-10-31T00:27:27;16.20;;;7.17;;
68089;SDS011;54880;50.986;6.990;2022-10-31T00:29:53;15.85;;;6.85;;
68089;SDS011;54880;50.986;6.990;2022-10-31T00:32:20;14.65;;;7.13;;
68089;SDS011;54880;50.986;6.990;2022-10-31T00:34:45;19.73;;;7.27;;
68089;SDS011;54880;50.986;6.990;2022-10-31T00:37:10;15.67;;;6.93;;
68089;SDS011;54880;50.986;6.990;2022-10-31T00:39:36;15.20;;;6.80;;
68089;SDS011;54880;50.986;6.990;2022-10-31T00:42:01;14.70;;;6.93;;
68089;SDS011;54880;50.986;6.990;2022-10-31T00:44:26;15.67;;;7.00;;
68089;SDS011;54880;50.986;6.990;2022-10-31T00:46:51;15.87;;;7.60;;
68089;SDS011;54880;50.986;6.990;2022-10-31T00:49:20;17.23;;;7.00;;
68089;SDS011;54880;50.986;6.990;2022-10-31T00:51:45;17.80;;;7.10;;
68089;SDS011;54880;50.986;6.990;2022-10-31T00:54:11;14.57;;;6.33;;
68089;SDS011;54880;50.986;6.990;2022-10-31T00:56:36;16.33;;;6.93;;
68089;SDS011;54880;50.986;6.990;2022-10-31T00:59:01;17.67;;;6.97;;
68089;SDS011;54880;50.986;6.990;2022-10-31T01:01:27;17.13;;;6.43;;
68089;SDS011;54880;50.986;6.990;2022-10-31T01:03:52;13.27;;;6.03;;
68089;SDS011;54880;50.986;6.990;2022-10-31T01:06:17;15.93;;;6.23;;
68089;SDS011;54880;50.986;6.990;2022-10-31T01:08:42;21.43;;;7.30;;
68089;SDS011;54880;50.986;6.990;2022-10-31T01:11:12;19.35;;;7.05;;
68089;SDS011;54880;50.986;6.990;2022-10-31T01:13:39;19.80;;;6.40;;
68089;SDS011;54880;50.986;6.990;2022-10-31T01:16:05;17.07;;;6.60;;
68089;SDS011;54880;50.986;6.990;2022-10-31T01:18:31;18.42;;;6.85;;
68089;SDS011;54880;50.986;6.990;2022-10-31T01:21:01;13.33;;;6.90;;
68089;SDS011;54880;50.986;6.990;2022-10-31T01:23:27;15.18;;;7.07;;
68089;SDS011;54880;50.986;6.990;2022-10-31T01:26:06;15.57;;;7.03;;
68089;SDS011;54880;50.986;6.990;2022-10-31T01:28:33;16.33;;;6.90;;
68089;SDS011;54880;50.986;6.990;2022-10-31T01:31:02;15.88;;;7.28;;
68089;SDS011;54880;50.986;6.990;2022-10-31T01:33:28;14.60;;;6.72;;
68089;SDS011;54880;50.986;6.990;2022-10-31T01:35:53;13.90;;;6.73;;
68089;SDS011;54880;50.986;6.990;2022-10-31T01:38:18;16.23;;;6.60;;
68089;SDS011;54880;50.986;6.990;2022-10-31T01:40:44;15.87;;;6.40;;
68089;SDS011;54880;50.986;6.990;2022-10-31T01:43:11;14.90;;;6.83;;
68089;SDS011;54880;50.986;6.990;2022-10-31T01:45:37;17.95;;;6.60;;
68089;SDS011;54880;50.986;6.990;2022-10-31T01:48:02;16.63;;;7.23;;
68089;SDS011;54880;50.986;6.990;2022-10-31T01:50:29;15.77;;;6.87;;
68089;SDS011;54880;50.986;6.990;2022-10-31T01:52:56;13.05;;;6.80;;
68089;SDS011;54880;50.986;6.990;2022-10-31T01:55:24;16.30;;;6.53;;
68089;SDS011;54880;50.986;6.990;2022-10-31T01:57:51;14.77;;;7.20;;
68089;SDS011;54880;50.986;6.990;2022-10-31T02:00:19;14.90;;;6.32;;
68089;SDS011;54880;50.986;6.990;2022-10-31T02:02:45;18.30;;;7.00;;
68089;SDS011;54880;50.986;6.990;2022-10-31T02:05:16;15.93;;;6.50;;
68089;SDS011;54880;50.986;6.990;2022-10-31T02:10:07;15.40;;;6.67;;
68089;SDS011;54880;50.986;6.990;2022-10-31T02:12:32;18.00;;;6.13;;
68089;SDS011;54880;50.986;6.990;2022-10-31T02:15:01;16.57;;;6.77;;
68089;SDS011;54880;50.986;6.990;2022-10-31T02:17:26;15.80;;;6.88;;
68089;SDS011;54880;50.986;6.990;2022-10-31T02:19:54;15.03;;;6.63;;
68089;SDS011;54880;50.986;6.990;2022-10-31T02:30:11;17.75;;;6.45;;
68089;SDS011;54880;50.986;6.990;2022-10-31T02:35:19;16.20;;;6.28;;
68089;SDS011;54880;50.986;6.990;2022-10-31T02:38:10;19.87;;;6.60;;
68089;SDS011;54880;50.986;6.990;2022-10-31T02:40:46;15.65;;;5.85;;
68089;SDS011;54880;50.986;6.990;2022-10-31T02:46:23;16.55;;;6.90;;
68089;SDS011;54880;50.986;6.990;2022-10-31T02:48:51;17.33;;;6.60;;
68089;SDS011;54880;50.986;6.990;2022-10-31T02:51:17;16.83;;;6.20;;
68089;SDS011;54880;50.986;6.990;2022-10-31T02:53:43;15.32;;;6.70;;
68089;SDS011;54880;50.986;6.990;2022-10-31T02:56:12;19.60;;;6.67;;
68089;SDS011;54880;50.986;6.990;2022-10-31T02:58:49;15.15;;;5.93;;
68089;SDS011;54880;50.986;6.990;2022-10-31T03:01:39;13.40;;;6.70;;
68089;SDS011;54880;50.986;6.990;2022-10-31T03:06:40;17.23;;;6.03;;
68089;SDS011;54880;50.986;6.990;2022-10-31T03:14:27;17.55;;;7.07;;
68089;SDS011;54880;50.986;6.990;2022-10-31T03:16:59;16.48;;;5.85;;
68089;SDS011;54880;50.986;6.990;2022-10-31T03:19:35;14.07;;;6.30;;
68089;SDS011;54880;50.986;6.990;2022-10-31T03:22:13;16.60;;;6.60;;
68089;SDS011;54880;50.986;6.990;2022-10-31T03:24:42;17.42;;;6.43;;
68089;SDS011;54880;50.986;6.990;2022-10-31T03:27:09;15.82;;;6.90;;
68089;SDS011;54880;50.986;6.990;2022-10-31T03:29:36;17.15;;;6.35;;
68089;SDS011;54880;50.986;6.990;2022-10-31T03:32:06;14.40;;;6.03;;
68089;SDS011;54880;50.986;6.990;2022-10-31T03:34:34;16.27;;;6.20;;
68089;SDS011;54880;50.986;6.990;2022-10-31T03:37:01;15.63;;;6.72;;
68089;SDS011;54880;50.986;6.990;2022-10-31T03:39:28;14.30;;;5.93;;
68089;SDS011;54880;50.986;6.990;2022-10-31T03:41:54;18.20;;;6.47;;
68089;SDS011;54880;50.986;6.990;2022-10-31T03:44:21;13.48;;;5.70;;
68089;SDS011;54880;50.986;6.990;2022-10-31T03:46:55;14.63;;;6.13;;
68089;SDS011;54880;50.986;6.990;2022-10-31T03:49:21;16.43;;;5.93;;
68089;SDS011;54880;50.986;6.990;2022-10-31T03:54:21;14.95;;;6.45;;
68089;SDS011;54880;50.986;6.990;2022-10-31T03:57:13;13.60;;;6.13;;
68089;SDS011;54880;50.986;6.990;2022-10-31T03:59:41;15.52;;;6.13;;
68089;SDS011;54880;50.986;6.990;2022-10-31T04:02:10;14.23;;;6.05;;
68089;SDS011;54880;50.986;6.990;2022-10-31T04:04:38;15.57;;;6.15;;
68089;SDS011;54880;50.986;6.990;2022-10-31T04:07:04;15.35;;;5.53;;
68089;SDS011;54880;50.986;6.990;2022-10-31T04:09:34;15.93;;;6.73;;
68089;SDS011;54880;50.986;6.990;2022-10-31T04:12:01;20.98;;;6.43;;
68089;SDS011;54880;50.986;6.990;2022-10-31T04:14:46;15.95;;;6.80;;
68089;SDS011;54880;50.986;6.990;2022-10-31T04:17:13;14.00;;;6.03;;
68089;SDS011;54880;50.986;6.990;2022-10-31T04:19:41;22.05;;;6.88;;
68089;SDS011;54880;50.986;6.990;2022-10-31T04:22:06;17.03;;;6.70;;
68089;SDS011;54880;50.986;6.990;2022-10-31T04:24:31;15.30;;;6.27;;
68089;SDS011;54880;50.986;6.990;2022-10-31T04:26:57;15.23;;;7.03;;
68089;SDS011;54880;50.986;6.990;2022-10-31T04:29:23;16.27;;;6.18;;
68089;SDS011;54880;50.986;6.990;2022-10-31T04:31:48;14.17;;;6.30;;
68089;SDS011;54880;50.986;6.990;2022-10-31T04:34:13;17.13;;;6.60;;
68089;SDS011;54880;50.986;6.990;2022-10-31T04:36:38;12.93;;;5.53;;
68089;SDS011;54880;50.986;6.990;2022-10-31T04:39:04;20.97;;;6.80;;
68089;SDS011;54880;50.986;6.990;2022-10-31T04:41:37;18.27;;;7.05;;
68089;SDS011;54880;50.986;6.990;2022-10-31T04:44:12;16.95;;;6.00;;
68089;SDS011;54880;50.986;6.990;2022-10-31T04:46:37;14.80;;;5.97;;
68089;SDS011;54880;50.986;6.990;2022-10-31T04:49:03;20.37;;;6.60;;
68089;SDS011;54880;50.986;6.990;2022-10-31T04:51:28;16.40;;;6.40;;
68089;SDS011;54880;50.986;6.990;2022-10-31T04:53:54;15.88;;;5.68;;
68089;SDS011;54880;50.986;6.990;2022-10-31T04:56:37;16.00;;;6.27;;
68089;SDS011;54880;50.986;6.990;2022-10-31T04:59:09;14.75;;;6.43;;
68089;SDS011;54880;50.986;6.990;2022-10-31T05:01:45;12.77;;;5.63;;
68089;SDS011;54880;50.986;6.990;2022-10-31T05:04:10;14.00;;;6.57;;
68089;SDS011;54880;50.986;6.990;2022-10-31T05:06:35;20.13;;;6.77;;
68089;SDS011;54880;50.986;6.990;2022-10-31T05:09:01;16.87;;;6.47;;
68089;SDS011;54880;50.986;6.990;2022-10-31T05:11:27;18.13;;;6.32;;
68089;SDS011;54880;50.986;6.990;2022-10-31T05:13:57;13.80;;;6.72;;
68089;SDS011;54880;50.986;6.990;2022-10-31T05:16:45;14.30;;;5.93;;
68089;SDS011;54880;50.986;6.990;2022-10-31T05:19:29;19.83;;;6.72;;
68089;SDS011;54880;50.986;6.990;2022-10-31T05:22:32;20.30;;;7.07;;
68089;SDS011;54880;50.986;6.990;2022-10-31T05:24:58;17.13;;;6.97;;
68089;SDS011;54880;50.986;6.990;2022-10-31T05:27:23;17.45;;;6.00;;
68089;SDS011;54880;50.986;6.990;2022-10-31T05:29:48;14.45;;;7.03;;
68089;SDS011;54880;50.986;6.990;2022-10-31T05:32:13;14.13;;;6.70;;
68089;SDS011;54880;50.986;6.990;2022-10-31T05:35:18;14.80;;;6.73;;
68089;SDS011;54880;50.986;6.990;2022-10-31T05:38:04;16.20;;;6.45;;
68089;SDS011;54880;50.986;6.990;2022-10-31T05:40:29;17.92;;;6.60;;
68089;SDS011;54880;50.986;6.990;2022-10-31T05:42:55;14.17;;;6.40;;
68089;SDS011;54880;50.986;6.990;2022-10-31T05:45:21;15.57;;;6.13;;
68089;SDS011;54880;50.986;6.990;2022-10-31T05:47:55;14.23;;;6.70;;
68089;SDS011;54880;50.986;6.990;2022-10-31T05:50:44;17.40;;;6.85;;
68089;SDS011;54880;50.986;6.990;2022-10-31T05:53:10;19.42;;;6.80;;
68089;SDS011;54880;50.986;6.990;2022-10-31T05:55:37;16.73;;;6.60;;
68089;SDS011;54880;50.986;6.990;2022-10-31T05:58:07;18.70;;;6.27;;
68089;SDS011;54880;50.986;6.990;2022-10-31T06:00:35;16.60;;;6.95;;
68089;SDS011;54880;50.986;6.990;2022-10-31T06:03:06;15.93;;;6.10;;
68089;SDS011;54880;50.986;6.990;2022-10-31T06:05:44;15.25;;;6.53;;
68089;SDS011;54880;50.986;6.990;2022-10-31T06:08:09;16.37;;;6.33;;
68089;SDS011;54880;50.986;6.990;2022-10-31T06:10:37;19.30;;;6.57;;
68089;SDS011;54880;50.986;6.990;2022-10-31T06:13:02;19.10;;;6.77;;
68089;SDS011;54880;50.986;6.990;2022-10-31T06:15:33;14.68;;;6.50;;
68089;SDS011;54880;50.986;6.990;2022-10-31T06:18:00;15.40;;;7.37;;
68089;SDS011;54880;50.986;6.990;2022-10-31T06:20:26;16.27;;;6.53;;
68089;SDS011;54880;50.986;6.990;2022-10-31T06:22:57;18.92;;;6.47;;
68089;SDS011;54880;50.986;6.990;2022-10-31T06:25:23;17.53;;;6.43;;
68089;SDS011;54880;50.986;6.990;2022-10-31T06:27:48;18.43;;;6.50;;
68089;SDS011;54880;50.986;6.990;2022-10-31T06:30:14;18.15;;;6.88;;
68089;SDS011;54880;50.986;6.990;2022-10-31T06:32:40;16.87;;;6.97;;
68089;SDS011;54880;50.986;6.990;2022-10-31T06:35:07;16.95;;;7.03;;
68089;SDS011;54880;50.986;6.990;2022-10-31T06:37:33;17.50;;;7.00;;
68089;SDS011;54880;50.986;6.990;2022-10-31T06:40:06;17.75;;;6.95;;
68089;SDS011;54880;50.986;6.990;2022-10-31T06:42:47;16.43;;;7.20;;
68089;SDS011;54880;50.986;6.990;2022-10-31T06:45:22;19.30;;;6.50;;
68089;SDS011;54880;50.986;6.990;2022-10-31T06:48:10;17.48;;;7.30;;
68089;SDS011;54880;50.986;6.990;2022-10-31T06:50:41;16.50;;;7.18;;
68089;SDS011;54880;50.986;6.990;2022-10-31T06:53:08;18.25;;;6.32;;
68089;SDS011;54880;50.986;6.990;2022-10-31T06:55:33;17.17;;;7.00;;
68089;SDS011;54880;50.986;6.990;2022-10-31T06:58:00;14.68;;;7.20;;
68089;SDS011;54880;50.986;6.990;2022-10-31T07:00:27;22.80;;;6.63;;
68089;SDS011;54880;50.986;6.990;2022-10-31T07:03:05;20.48;;;7.32;;
68089;SDS011;54880;50.986;6.990;2022-10-31T07:05:32;17.08;;;7.15;;
68089;SDS011;54880;50.986;6.990;2022-10-31T07:07:58;14.83;;;7.10;;
68089;SDS011;54880;50.986;6.990;2022-10-31T07:10:24;16.73;;;7.00;;
68089;SDS011;54880;50.986;6.990;2022-10-31T07:12:57;15.82;;;6.40;;
68089;SDS011;54880;50.986;6.990;2022-10-31T07:15:27;21.83;;;7.28;;
68089;SDS011;54880;50.986;6.990;2022-10-31T07:17:53;15.40;;;6.80;;
68089;SDS011;54880;50.986;6.990;2022-10-31T07:20:20;13.63;;;7.05;;
68089;SDS011;54880;50.986;6.990;2022-10-31T07:22:46;15.18;;;6.57;;
68089;SDS011;54880;50.986;6.990;2022-10-31T07:25:11;14.00;;;6.40;;
68089;SDS011;54880;50.986;6.990;2022-10-31T07:27:56;16.02;;;6.72;;
68089;SDS011;54880;50.986;6.990;2022-10-31T07:30:22;15.03;;;6.93;;
68089;SDS011;54880;50.986;6.990;2022-10-31T07:32:50;17.10;;;7.30;;
68089;SDS011;54880;50.986;6.990;2022-10-31T07:35:19;16.33;;;6.40;;
68089;SDS011;54880;50.986;6.990;2022-10-31T07:37:47;15.13;;;6.70;;
68089;SDS011;54880;50.986;6.990;2022-10-31T07:40:13;13.70;;;6.63;;
68089;SDS011;54880;50.986;6.990;2022-10-31T07:42:39;15.73;;;6.60;;
68089;SDS011;54880;50.986;6.990;2022-10-31T07:45:09;19.02;;;7.03;;
68089;SDS011;54880;50.986;6.990;2022-10-31T07:48:06;14.82;;;6.93;;
68089;SDS011;54880;50.986;6.990;2022-10-31T07:50:50;16.08;;;7.03;;
68089;SDS011;54880;50.986;6.990;2022-10-31T07:53:38;18.87;;;7.60;;
68089;SDS011;54880;50.986;6.990;2022-10-31T07:56:16;15.98;;;7.13;;
68089;SDS011;54880;50.986;6.990;2022-10-31T07:58:42;16.00;;;7.63;;
68089;SDS011;54880;50.986;6.990;2022-10-31T08:01:07;19.90;;;6.90;;
68089;SDS011;54880;50.986;6.990;2022-10-31T08:03:41;18.85;;;7.20;;
68089;SDS011;54880;50.986;6.990;2022-10-31T08:06:09;20.73;;;7.70;;
68089;SDS011;54880;50.986;6.990;2022-10-31T08:08:43;18.73;;;7.15;;
68089;SDS011;54880;50.986;6.990;2022-10-31T08:11:08;20.23;;;8.67;;
68089;SDS011;54880;50.986;6.990;2022-10-31T08:13:34;17.93;;;7.23;;
68089;SDS011;54880;50.986;6.990;2022-10-31T08:16:00;16.75;;;7.45;;
68089;SDS011;54880;50.986;6.990;2022-10-31T08:18:30;18.23;;;7.17;;
68089;SDS011;54880;50.986;6.990;2022-10-31T08:20:56;16.98;;;6.95;;
68089;SDS011;54880;50.986;6.990;2022-10-31T08:23:22;18.80;;;8.20;;
68089;SDS011;54880;50.986;6.990;2022-10-31T08:25:47;17.50;;;7.72;;
68089;SDS011;54880;50.986;6.990;2022-10-31T08:28:13;17.27;;;8.00;;
68089;SDS011;54880;50.986;6.990;2022-10-31T08:30:41;16.98;;;7.25;;
68089;SDS011;54880;50.986;6.990;2022-10-31T08:33:30;17.03;;;7.93;;
68089;SDS011;54880;50.986;6.990;2022-10-31T08:36:24;17.77;;;8.38;;
68089;SDS011;54880;50.986;6.990;2022-10-31T08:39:01;18.50;;;7.30;;
68089;SDS011;54880;50.986;6.990;2022-10-31T08:41:27;20.58;;;7.70;;
68089;SDS011;54880;50.986;6.990;2022-10-31T08:43:53;19.83;;;8.20;;
68089;SDS011;54880;50.986;6.990;2022-10-31T08:46:19;16.55;;;8.00;;
68089;SDS011;54880;50.986;6.990;2022-10-31T08:48:44;22.00;;;7.87;;
68089;SDS011;54880;50.986;6.990;2022-10-31T08:51:12;19.13;;;7.70;;
68089;SDS011;54880;50.986;6.990;2022-10-31T08:53:37;20.27;;;7.60;;
68089;SDS011;54880;50.986;6.990;2022-10-31T08:56:21;17.73;;;7.93;;
68089;SDS011;54880;50.986;6.990;2022-10-31T08:58:48;19.58;;;7.57;;
68089;SDS011;54880;50.986;6.990;2022-10-31T09:01:13;15.45;;;7.90;;
68089;SDS011;54880;50.986;6.990;2022-10-31T09:03:38;19.45;;;7.55;;
68089;SDS011;54880;50.986;6.990;2022-10-31T09:06:04;19.63;;;7.22;;
68089;SDS011;54880;50.986;6.990;2022-10-31T09:08:33;19.95;;;7.80;;
68089;SDS011;54880;50.986;6.990;2022-10-31T09:11:00;20.77;;;7.43;;
68089;SDS011;54880;50.986;6.990;2022-10-31T09:13:55;20.45;;;7.70;;
68089;SDS011;54880;50.986;6.990;2022-10-31T09:16:47;16.90;;;6.93;;
68089;SDS011;54880;50.986;6.990;2022-10-31T09:19:19;18.88;;;7.50;;
68089;SDS011;54880;50.986;6.990;2022-10-31T09:21:45;17.35;;;7.72;;
68089;SDS011;54880;50.986;6.990;2022-10-31T09:24:11;16.73;;;7.43;;
68089;SDS011;54880;50.986;6.990;2022-10-31T09:26:36;25.93;;;7.47;;
68089;SDS011;54880;50.986;6.990;2022-10-31T09:29:18;16.17;;;7.57;;
68089;SDS011;54880;50.986;6.990;2022-10-31T09:31:47;16.43;;;7.23;;
68089;SDS011;54880;50.986;6.990;2022-10-31T09:34:24;18.75;;;7.97;;
68089;SDS011;54880;50.986;6.990;2022-10-31T09:37:01;20.98;;;7.30;;
68089;SDS011;54880;50.986;6.990;2022-10-31T09:39:27;16.45;;;7.68;;
68089;SDS011;54880;50.986;6.990;2022-10-31T09:42:01;17.80;;;7.55;;
68089;SDS011;54880;50.986;6.990;2022-10-31T09:44:41;22.60;;;8.05;;
68089;SDS011;54880;50.986;6.990;2022-10-31T09:47:25;17.60;;;7.18;;
68089;SDS011;54880;50.986;6.990;2022-10-31T09:50:21;19.52;;;7.30;;
68089;SDS011;54880;50.986;6.990;2022-10-31T09:53:09;20.30;;;7.93;;
68089;SDS011;54880;50.986;6.990;2022-10-31T09:55:41;17.70;;;7.03;;
68089;SDS011;54880;50.986;6.990;2022-10-31T09:58:15;17.10;;;6.95;;
68089;SDS011;54880;50.986;6.990;2022-10-31T10:00:41;18.15;;;6.65;;
68089;SDS011;54880;50.986;6.990;2022-10-31T10:03:13;19.75;;;6.82;;
68089;SDS011;54880;50.986;6.990;2022-10-31T10:05:45;18.23;;;7.03;;
68089;SDS011;54880;50.986;6.990;2022-10-31T10:08:19;20.45;;;7.35;;
68089;SDS011;54880;50.986;6.990;2022-10-31T10:10:53;18.10;;;6.65;;
68089;SDS011;54880;50.986;6.990;2022-10-31T10:13:57;13.35;;;6.07;;
68089;SDS011;54880;50.986;6.990;2022-10-31T10:19:14;13.07;;;6.33;;
68089;SDS011;54880;50.986;6.990;2022-10-31T10:21:50;20.00;;;6.50;;
68089;SDS011;54880;50.986;6.990;2022-10-31T10:24:25;16.15;;;5.50;;
68089;SDS011;54880;50.986;6.990;2022-10-31T10:29:44;15.73;;;5.43;;
68089;SDS011;54880;50.986;6.990;2022-10-31T10:32:11;18.03;;;5.50;;
68089;SDS011;54880;50.986;6.990;2022-10-31T10:34:43;13.98;;;5.70;;
68089;SDS011;54880;50.986;6.990;2022-10-31T10:39:43;14.75;;;5.22;;
68089;SDS011;54880;50.986;6.990;2022-10-31T10:42:13;13.90;;;4.60;;
68089;SDS011;54880;50.986;6.990;2022-10-31T10:44:57;13.97;;;5.10;;
68089;SDS011;54880;50.986;6.990;2022-10-31T10:47:42;12.65;;;5.22;;
68089;SDS011;54880;50.986;6.990;2022-10-31T10:50:18;14.68;;;4.90;;
68089;SDS011;54880;50.986;6.990;2022-10-31T10:57:52;14.00;;;5.00;;
68089;SDS011;54880;50.986;6.990;2022-10-31T11:00:23;19.63;;;5.20;;
68089;SDS011;54880;50.986;6.990;2022-10-31T11:02:49;13.57;;;5.30;;
68089;SDS011;54880;50.986;6.990;2022-10-31T11:05:18;15.13;;;5.57;;
68089;SDS011;54880;50.986;6.990;2022-10-31T11:07:45;14.65;;;5.10;;
68089;SDS011;54880;50.986;6.990;2022-10-31T11:10:14;15.67;;;5.50;;
68089;SDS011;54880;50.986;6.990;2022-10-31T11:12:40;15.23;;;4.90;;
68089;SDS011;54880;50.986;6.990;2022-10-31T11:15:07;18.23;;;5.28;;
68089;SDS011;54880;50.986;6.990;2022-10-31T11:17:34;16.07;;;5.17;;
68089;SDS011;54880;50.986;6.990;2022-10-31T11:20:01;12.93;;;5.22;;
68089;SDS011;54880;50.986;6.990;2022-10-31T11:22:27;13.93;;;4.53;;
68089;SDS011;54880;50.986;6.990;2022-10-31T11:24:53;17.77;;;5.23;;
68089;SDS011;54880;50.986;6.990;2022-10-31T11:27:22;14.00;;;4.97;;
68089;SDS011;54880;50.986;6.990;2022-10-31T11:29:48;15.70;;;5.10;;
68089;SDS011;54880;50.986;6.990;2022-10-31T11:32:21;12.15;;;4.80;;
68089;SDS011;54880;50.986;6.990;2022-10-31T11:34:47;17.57;;;5.20;;
68089;SDS011;54880;50.986;6.990;2022-10-31T11:37:16;15.65;;;5.50;;
68089;SDS011;54880;50.986;6.990;2022-10-31T11:39:46;13.73;;;5.10;;
68089;SDS011;54880;50.986;6.990;2022-10-31T11:42:18;12.90;;;5.30;;
68089;SDS011;54880;50.986;6.990;2022-10-31T11:44:43;13.55;;;5.00;;
68089;SDS011;54880;50.986;6.990;2022-10-31T11:47:09;18.35;;;5.30;;
68089;SDS011;54880;50.986;6.990;2022-10-31T11:49:45;14.93;;;5.18;;
68089;SDS011;54880;50.986;6.990;2022-10-31T11:52:15;15.70;;;4.97;;
68089;SDS011;54880;50.986;6.990;2022-10-31T11:57:21;15.37;;;4.90;;
68089;SDS011;54880;50.986;6.990;2022-10-31T11:59:50;15.50;;;5.10;;
68089;SDS011;54880;50.986;6.990;2022-10-31T12:02:17;14.85;;;5.30;;
68089;SDS011;54880;50.986;6.990;2022-10-31T12:04:44;14.40;;;5.35;;
68089;SDS011;54880;50.986;6.990;2022-10-31T12:07:11;12.93;;;5.23;;
68089;SDS011;54880;50.986;6.990;2022-10-31T12:09:36;12.20;;;5.22;;
68089;SDS011;54880;50.986;6.990;2022-10-31T12:12:16;12.50;;;4.30;;
68089;SDS011;54880;50.986;6.990;2022-10-31T12:17:18;11.48;;;4.50;;
68089;SDS011;54880;50.986;6.990;2022-10-31T12:25:07;10.88;;;4.45;;
68089;SDS011;54880;50.986;6.990;2022-10-31T12:30:19;14.48;;;4.25;;
68089;SDS011;54880;50.986;6.990;2022-10-31T12:38:22;15.65;;;4.53;;
68089;SDS011;54880;50.986;6.990;2022-10-31T12:48:58;12.63;;;4.43;;
68089;SDS011;54880;50.986;6.990;2022-10-31T12:51:08;14.95;;;4.53;;
68089;SDS011;54880;50.986;6.990;2022-10-31T12:56:05;10.87;;;4.30;;
68089;SDS011;54880;50.986;6.990;2022-10-31T13:01:31;13.63;;;4.68;;
68089;SDS011;54880;50.986;6.990;2022-10-31T13:03:58;11.93;;;4.68;;
68089;SDS011;54880;50.986;6.990;2022-10-31T13:06:32;12.85;;;4.30;;
68089;SDS011;54880;50.986;6.990;2022-10-31T13:09:01;11.40;;;4.55;;
68089;SDS011;54880;50.986;6.990;2022-10-31T13:11:33;14.53;;;4.77;;
68089;SDS011;54880;50.986;6.990;2022-10-31T13:16:25;11.27;;;4.33;;
68089;SDS011;54880;50.986;6.990;2022-10-31T13:21:21;14.15;;;4.18;;
68089;SDS011;54880;50.986;6.990;2022-10-31T13:23:48;15.60;;;4.47;;
68089;SDS011;54880;50.986;6.990;2022-10-31T13:26:36;11.80;;;4.50;;
68089;SDS011;54880;50.986;6.990;2022-10-31T13:31:31;15.02;;;4.40;;
68089;SDS011;54880;50.986;6.990;2022-10-31T13:33:57;13.27;;;4.43;;
68089;SDS011;54880;50.986;6.990;2022-10-31T13:36:35;12.02;;;3.42;;
68089;SDS011;54880;50.986;6.990;2022-10-31T13:44:03;10.02;;;4.07;;
68089;SDS011;54880;50.986;6.990;2022-10-31T13:46:37;10.50;;;4.10;;
68089;SDS011;54880;50.986;6.990;2022-10-31T13:49:03;11.05;;;4.00;;
68089;SDS011;54880;50.986;6.990;2022-10-31T13:51:29;14.38;;;4.32;;
68089;SDS011;54880;50.986;6.990;2022-10-31T13:56:21;12.30;;;4.83;;
68089;SDS011;54880;50.986;6.990;2022-10-31T13:58:57;13.93;;;4.30;;
68089;SDS011;54880;50.986;6.990;2022-10-31T14:01:23;16.77;;;5.60;;
68089;SDS011;54880;50.986;6.990;2022-10-31T14:04:23;18.37;;;5.13;;
68089;SDS011;54880;50.986;6.990;2022-10-31T14:06:42;20.42;;;4.55;;
68089;SDS011;54880;50.986;6.990;2022-10-31T14:12:12;14.85;;;4.78;;
68089;SDS011;54880;50.986;6.990;2022-10-31T14:14:43;12.77;;;4.70;;
68089;SDS011;54880;50.986;6.990;2022-10-31T14:17:16;12.90;;;4.27;;
68089;SDS011;54880;50.986;6.990;2022-10-31T14:19:42;19.30;;;4.35;;
68089;SDS011;54880;50.986;6.990;2022-10-31T14:22:20;13.60;;;4.40;;
68089;SDS011;54880;50.986;6.990;2022-10-31T14:24:46;11.38;;;4.25;;
68089;SDS011;54880;50.986;6.990;2022-10-31T14:29:49;13.27;;;4.47;;
68089;SDS011;54880;50.986;6.990;2022-10-31T14:32:22;14.60;;;4.57;;
68089;SDS011;54880;50.986;6.990;2022-10-31T14:34:55;11.73;;;4.00;;
68089;SDS011;54880;50.986;6.990;2022-10-31T14:37:27;12.77;;;4.05;;
68089;SDS011;54880;50.986;6.990;2022-10-31T14:45:06;12.65;;;3.92;;
68089;SDS011;54880;50.986;6.990;2022-10-31T14:50:13;16.57;;;4.53;;
68089;SDS011;54880;50.986;6.990;2022-10-31T14:52:42;14.23;;;3.83;;
68089;SDS011;54880;50.986;6.990;2022-10-31T14:55:10;16.87;;;3.60;;
68089;SDS011;54880;50.986;6.990;2022-10-31T14:57:37;12.23;;;4.25;;
68089;SDS011;54880;50.986;6.990;2022-10-31T15:00:04;16.08;;;4.00;;
68089;SDS011;54880;50.986;6.990;2022-10-31T15:02:32;15.50;;;4.85;;
68089;SDS011;54880;50.986;6.990;2022-10-31T15:05:03;16.08;;;4.45;;
68089;SDS011;54880;50.986;6.990;2022-10-31T15:07:31;14.43;;;4.10;;
68089;SDS011;54880;50.986;6.990;2022-10-31T15:10:03;18.15;;;4.55;;
68089;SDS011;54880;50.986;6.990;2022-10-31T15:12:30;15.40;;;4.80;;
68089;SDS011;54880;50.986;6.990;2022-10-31T15:14:56;13.75;;;4.53;;
68089;SDS011;54880;50.986;6.990;2022-10-31T15:17:23;16.90;;;4.32;;
68089;SDS011;54880;50.986;6.990;2022-10-31T15:19:49;16.10;;;4.27;;
68089;SDS011;54880;50.986;6.990;2022-10-31T15:22:18;17.17;;;4.20;;
68089;SDS011;54880;50.986;6.990;2022-10-31T15:24:44;12.82;;;4.00;;
68089;SDS011;54880;50.986;6.990;2022-10-31T15:27:14;16.03;;;4.40;;
68089;SDS011;54880;50.986;6.990;2022-10-31T15:29:50;13.10;;;3.63;;
68089;SDS011;54880;50.986;6.990;2022-10-31T15:32:18;11.77;;;3.60;;
68089;SDS011;54880;50.986;6.990;2022-10-31T15:34:45;14.13;;;3.80;;
68089;SDS011;54880;50.986;6.990;2022-10-31T15:37:20;12.67;;;3.50;;
68089;SDS011;54880;50.986;6.990;2022-10-31T15:39:46;12.45;;;4.18;;
68089;SDS011;54880;50.986;6.990;2022-10-31T15:42:22;12.60;;;3.67;;
68089;SDS011;54880;50.986;6.990;2022-10-31T15:44:49;10.73;;;3.42;;
68089;SDS011;54880;50.986;6.990;2022-10-31T15:47:17;14.02;;;3.67;;
68089;SDS011;54880;50.986;6.990;2022-10-31T15:49:53;18.47;;;4.20;;
68089;SDS011;54880;50.986;6.990;2022-10-31T15:54:53;13.13;;;3.67;;
68089;SDS011;54880;50.986;6.990;2022-10-31T15:57:20;14.13;;;3.85;;
68089;SDS011;54880;50.986;6.990;2022-10-31T15:59:46;19.73;;;3.73;;
68089;SDS011;54880;50.986;6.990;2022-10-31T16:02:13;10.95;;;3.17;;
68089;SDS011;54880;50.986;6.990;2022-10-31T16:04:47;9.13;;;3.40;;
68089;SDS011;54880;50.986;6.990;2022-10-31T16:07:13;10.25;;;3.10;;
68089;SDS011;54880;50.986;6.990;2022-10-31T16:09:55;17.08;;;3.58;;
68089;SDS011;54880;50.986;6.990;2022-10-31T16:12:22;14.93;;;4.17;;
68089;SDS011;54880;50.986;6.990;2022-10-31T16:14:47;12.98;;;3.85;;
68089;SDS011;54880;50.986;6.990;2022-10-31T16:17:14;14.88;;;4.05;;
68089;SDS011;54880;50.986;6.990;2022-10-31T16:22:19;14.73;;;3.60;;
68089;SDS011;54880;50.986;6.990;2022-10-31T16:24:45;12.87;;;2.93;;
68089;SDS011;54880;50.986;6.990;2022-10-31T16:27:18;11.70;;;3.83;;
68089;SDS011;54880;50.986;6.990;2022-10-31T16:29:46;10.80;;;3.42;;
68089;SDS011;54880;50.986;6.990;2022-10-31T16:32:24;13.57;;;3.70;;
68089;SDS011;54880;50.986;6.990;2022-10-31T16:34:59;16.25;;;4.20;;